• Join FlightAware (Why Join?)
  • Login
  • US Flag 
06:44PM EDT


 

Airport Tracker/Info


-or-


 

Live Flight TrackerFlight Track Log ✈ N100PM ✈ 26-Oct-2013 ✈ KAPF - KIMM

Flight Track Log - Related Links

Times and Time Zones

All times are in EDT time to prevent confusion due to time zone crossing. See the N100PM flight status page for this flight to view local times or setup timezone preferences in your user account.

Time Position Orientation Groundspeed Altitude Reporting Facility
EDT Latitude Longitude Course Direction KTS MPH feet Rate Location/Type
07:51AM 26.1889 -81.7273 North  Level Estimated
07:52AM 26.1983 -81.7284 354° North  Level FlightAware Approximate
07:53AM 26.2077 -81.7296 354° North  Level FlightAware Approximate
07:54AM 26.2171 -81.7307 354° North  Level FlightAware Approximate
07:55AM 26.2265 -81.7318 354° North  Level FlightAware Approximate
07:56AM 26.2359 -81.7329 354° North  Level FlightAware Approximate
07:57AM 26.2453 -81.7341 354° North  Level FlightAware Approximate
07:58AM 26.2546 -81.7352 354° North  Level FlightAware Approximate
07:59AM 26.2640 -81.7363 354° North  Level FlightAware Approximate
08:00AM 26.2734 -81.7375 354° North  Level FlightAware Approximate
08:01AM 26.2828 -81.7386 354° North  Level FlightAware Approximate
08:02AM 26.2922 -81.7397 354° North  Level FlightAware Approximate
08:03AM 26.3016 -81.7409 354° North  Level FlightAware Approximate
08:04AM 26.3110 -81.7420 354° North  Level FlightAware Approximate
08:05AM 26.3204 -81.7431 354° North  Level FlightAware Approximate
08:06AM 26.3298 -81.7442 354° North  Level FlightAware Approximate
08:07AM 26.3391 -81.7454 354° North  Level FlightAware Approximate
08:08AM 26.3485 -81.7465 354° North  Level FlightAware Approximate
08:09AM 26.3579 -81.7476 354° North  Level FlightAware Approximate
08:10AM 26.3673 -81.7487 354° North  Level FlightAware Approximate
08:11AM 26.3767 -81.7499 354° North  Level FlightAware Approximate
08:12AM 26.3861 -81.7510 354° North  Level FlightAware Approximate
08:13AM 26.3955 -81.7521 354° North  Level FlightAware Approximate
08:14AM 26.4049 -81.7533 354° North  Level FlightAware Approximate
08:15AM 26.4143 -81.7544 354° North  Level FlightAware Approximate
08:16AM 26.4237 -81.7555 354° North  Level FlightAware Approximate
08:17AM 26.4331 -81.7566 354° North  Level FlightAware Approximate
08:18AM 26.4331 -81.7461 103° East  Level Estimated
08:19AM 26.4346 -81.7357 81° East  Level FlightAware Approximate
08:20AM 26.4361 -81.7253 81° East  Level FlightAware Approximate
08:21AM 26.4377 -81.7149 81° East  Level FlightAware Approximate
08:22AM 26.4392 -81.7045 81° East  Level FlightAware Approximate
08:23AM 26.4407 -81.6940 81° East  Level FlightAware Approximate
08:24AM 26.4423 -81.6836 81° East  Level FlightAware Approximate
08:25AM 26.4438 -81.6732 81° East  Level FlightAware Approximate
08:26AM 26.4453 -81.6628 81° East  Level FlightAware Approximate
08:27AM 26.4469 -81.6524 81° East  Level FlightAware Approximate
08:28AM 26.4484 -81.6420 81° East  Level FlightAware Approximate
08:29AM 26.4499 -81.6316 81° East  Level FlightAware Approximate
08:30AM 26.4514 -81.6212 81° East  Level FlightAware Approximate
08:31AM 26.4529 -81.6108 81° East  Level FlightAware Approximate
08:32AM 26.4545 -81.6003 81° East  Level FlightAware Approximate
08:33AM 26.4560 -81.5899 81° East  Level FlightAware Approximate
08:34AM 26.4575 -81.5795 81° East  Level FlightAware Approximate
08:35AM 26.4590 -81.5691 81° East  Level FlightAware Approximate
08:36AM 26.4605 -81.5587 81° East  Level FlightAware Approximate
08:37AM 26.4621 -81.5483 81° East  Level FlightAware Approximate
08:38AM 26.4636 -81.5379 81° East  Level FlightAware Approximate
08:39AM 26.4651 -81.5275 81° East  Level FlightAware Approximate
08:40AM 26.4666 -81.5171 81° East  Level FlightAware Approximate
08:41AM 26.4681 -81.5066 81° East  Level FlightAware Approximate
08:42AM 26.4665 -81.5164 119° Southeast  Level FlightAware Approximate
08:43AM 26.4619 -81.5072 119° Southeast  Level FlightAware Approximate
08:44AM 26.4573 -81.4979 119° Southeast  Level FlightAware Approximate
08:45AM 26.4527 -81.4887 119° Southeast  Level FlightAware Approximate
08:46AM 26.4492 -81.4791 103° East  Level FlightAware Approximate
08:47AM 26.4471 -81.4688 103° East  Level FlightAware Approximate
08:48AM 26.4450 -81.4585 103° East  Level FlightAware Approximate
08:49AM 26.4430 -81.4482 103° East  Level FlightAware Approximate
08:50AM 26.4409 -81.4379 103° East  Level FlightAware Approximate
08:51AM 26.4389 -81.4276 103° East  Level FlightAware Approximate
08:52AM 26.4368 -81.4173 103° East  Level FlightAware Approximate
08:53AM 26.4347 -81.4070 103° East  Level FlightAware Approximate
08:54AM 26.4333 -81.4000 103° East  Level FlightAware Approximate
08:55AM 26.4338 -81.4014 103° East  Level Estimated
08:56AM 26.4333 -81.4000 103° East  Level FlightAware Approximate
08:57AM 26.4338 -81.4014 103° East  Level Estimated
08:58AM 26.4333 -81.4000 103° East  Level FlightAware Approximate
08:59AM 26.4338 -81.4014 103° East  Level Estimated
09:00AM 26.4333 -81.4000 103° East  Level FlightAware Approximate
09:01AM 26.4338 -81.4014 103° East  Level Estimated
09:02AM 26.4333 -81.4000 103° East  Level FlightAware Approximate
09:03AM 26.4338 -81.4014 103° East  Level Estimated
09:04AM 26.4333 -81.4000 103° East  Level FlightAware Approximate
09:05AM 26.4338 -81.4014 103° East  Level Estimated
09:06AM 26.4333 -81.4000 103° East  Level FlightAware Approximate
09:07AM 26.4338 -81.4014 103° East  Level Estimated
09:08AM 26.4333 -81.4000 103° East  Level FlightAware Approximate
09:09AM 26.4338 -81.4014 103° East  Level Estimated
09:10AM 26.4333 -81.4000 103° East  Level FlightAware Approximate
09:11AM 26.4338 -81.4014 103° East  Level Estimated
09:12AM 26.4333 -81.4000 103° East  Level FlightAware Approximate
09:13AM 26.4338 -81.4014 103° East  Level Estimated
09:14AM 26.4333 -81.4000 103° East  Level FlightAware Approximate
09:15AM 26.4338 -81.4014 103° East  Level Estimated
09:16AM 26.4333 -81.4000 103° East  Level FlightAware Approximate